createdAt,value
2023-10-04T00:01:14.110Z,53.54
2023-10-04T00:04:09.541Z,52.78
2023-10-04T00:07:05.031Z,53.67
2023-10-04T00:09:46.170Z,52.97
2023-10-04T00:12:36.707Z,52.55
2023-10-04T00:15:16.934Z,52.47
2023-10-04T00:18:05.479Z,52.69
2023-10-04T00:20:44.839Z,52.92
2023-10-04T00:23:29.622Z,52.75
2023-10-04T00:26:12.236Z,52.95
2023-10-04T00:28:52.159Z,53.33
2023-10-04T00:31:44.449Z,53.61
2023-10-04T00:34:20.457Z,53.18
2023-10-04T00:37:00.538Z,52.88
2023-10-04T00:39:35.559Z,53.38
2023-10-04T00:42:10.263Z,53.04
2023-10-04T00:44:46.153Z,53.13
2023-10-04T00:47:25.376Z,52.99
2023-10-04T00:50:15.294Z,53.16
2023-10-04T00:53:03.333Z,52.97
2023-10-04T00:55:43.412Z,53.47
2023-10-04T00:58:25.560Z,53.37
2023-10-04T01:01:06.065Z,53.36
2023-10-04T01:04:39.340Z,52.92
2023-10-04T01:07:14.976Z,52.93
2023-10-04T01:09:48.796Z,53.00
2023-10-04T01:12:26.594Z,53.17
2023-10-04T01:15:13.598Z,52.74
2023-10-04T01:17:44.180Z,53.04
2023-10-04T01:20:26.635Z,53.14
2023-10-04T01:23:04.706Z,52.97
2023-10-04T01:25:44.302Z,52.96
2023-10-04T01:28:28.937Z,53.17
2023-10-04T01:31:07.025Z,52.77
2023-10-04T01:33:47.058Z,52.88
2023-10-04T01:36:26.005Z,52.97
2023-10-04T01:38:59.792Z,53.16
2023-10-04T01:41:43.175Z,53.33
2023-10-04T01:44:24.588Z,53.95
2023-10-04T01:47:05.843Z,53.58
2023-10-04T01:49:45.402Z,53.18
2023-10-04T01:52:18.079Z,53.43
2023-10-04T01:54:54.508Z,53.26
2023-10-04T01:57:31.037Z,53.25
2023-10-04T02:00:25.811Z,53.02
2023-10-04T02:03:02.702Z,52.95
2023-10-04T02:05:38.732Z,52.94
2023-10-04T02:08:17.683Z,53.37
2023-10-04T02:11:06.877Z,53.16
2023-10-04T02:13:59.452Z,53.73
2023-10-04T02:16:44.595Z,54.09
2023-10-04T02:19:26.280Z,53.53
2023-10-04T02:22:11.700Z,54.15
2023-10-04T02:24:55.562Z,53.41
2023-10-04T02:27:50.009Z,53.74
2023-10-04T02:30:42.243Z,53.56
2023-10-04T02:33:29.460Z,53.30
2023-10-04T02:36:09.323Z,53.41
2023-10-04T02:38:59.245Z,53.16
2023-10-04T02:41:49.178Z,53.10
2023-10-04T02:44:34.292Z,52.62
2023-10-04T02:47:28.018Z,52.29
2023-10-04T02:50:11.904Z,52.30
2023-10-04T02:52:58.202Z,52.24
2023-10-04T02:55:43.718Z,51.87
2023-10-04T02:58:21.848Z,51.73
2023-10-04T03:01:26.061Z,51.82
2023-10-04T03:04:07.681Z,51.33
2023-10-04T03:06:46.316Z,51.76
2023-10-04T03:09:25.769Z,51.54
2023-10-04T03:12:06.711Z,52.10
2023-10-04T03:14:56.196Z,52.01
2023-10-04T03:17:41.398Z,51.82
2023-10-04T03:20:24.563Z,52.20
2023-10-04T03:23:18.026Z,51.97
2023-10-04T03:26:05.683Z,52.14
2023-10-04T03:28:51.270Z,52.56
2023-10-04T03:31:40.938Z,52.65
2023-10-04T03:34:29.071Z,53.61
2023-10-04T03:37:21.632Z,53.07
2023-10-04T03:40:10.267Z,52.88
2023-10-04T03:42:48.262Z,52.91
2023-10-04T03:45:41.105Z,53.11
2023-10-04T03:48:43.431Z,52.94
2023-10-04T03:51:28.808Z,53.06
2023-10-04T03:54:10.358Z,53.30
2023-10-04T03:56:50.806Z,53.38
2023-10-04T03:59:42.171Z,53.25
2023-10-04T04:02:13.578Z,53.05
2023-10-04T04:04:57.887Z,53.26
2023-10-04T04:07:40.584Z,53.11
2023-10-04T04:10:18.811Z,53.79
2023-10-04T04:13:16.756Z,52.87
2023-10-04T04:15:56.042Z,52.37
2023-10-04T04:18:41.219Z,52.39
2023-10-04T04:21:35.149Z,52.21
2023-10-04T04:24:18.128Z,52.30
2023-10-04T04:26:59.907Z,52.65
2023-10-04T04:29:45.921Z,52.60
2023-10-04T04:32:19.128Z,52.62
2023-10-04T04:34:54.934Z,51.90
2023-10-04T04:37:34.918Z,51.94
2023-10-04T04:40:25.118Z,52.36
2023-10-04T04:43:23.753Z,52.50
2023-10-04T04:46:24.611Z,52.76
2023-10-04T04:49:22.039Z,53.26
2023-10-04T04:52:08.160Z,53.52
2023-10-04T04:54:55.813Z,53.41
2023-10-04T04:58:16.595Z,53.62
2023-10-04T05:01:17.222Z,53.15
2023-10-04T05:04:09.907Z,53.10
2023-10-04T05:07:03.321Z,52.97
2023-10-04T05:09:48.327Z,52.84
2023-10-04T05:12:40.619Z,52.76
2023-10-04T05:15:37.875Z,53.04
2023-10-04T05:18:34.932Z,52.85
2023-10-04T05:21:38.117Z,52.61
2023-10-04T05:24:43.860Z,52.55
2023-10-04T05:27:26.275Z,52.59
2023-10-04T05:30:05.927Z,52.73
2023-10-04T05:33:08.233Z,52.81
2023-10-04T05:35:47.412Z,52.82
2023-10-04T05:38:21.246Z,52.75
2023-10-04T05:40:52.556Z,52.93
2023-10-04T05:43:30.907Z,53.01
2023-10-04T05:46:13.134Z,53.39
2023-10-04T05:48:43.049Z,52.65
2023-10-04T05:51:28.562Z,52.15
2023-10-04T05:54:07.013Z,52.27
2023-10-04T05:56:44.004Z,51.92
2023-10-04T05:59:23.315Z,51.77
2023-10-04T06:01:54.060Z,51.80
2023-10-04T06:04:27.350Z,51.83
2023-10-04T06:07:02.858Z,51.86
2023-10-04T06:09:39.582Z,52.02
2023-10-04T06:12:36.990Z,51.62
2023-10-04T06:17:59.274Z,50.78
2023-10-04T06:20:26.438Z,51.82
2023-10-04T06:23:04.546Z,51.25
2023-10-04T06:25:41.388Z,50.23
2023-10-04T06:28:11.971Z,49.78
2023-10-04T06:30:52.354Z,49.51
2023-10-04T06:33:33.854Z,49.08
2023-10-04T06:36:08.310Z,48.33
2023-10-04T06:38:40.628Z,48.46
2023-10-04T06:41:20.219Z,48.45
2023-10-04T06:44:00.994Z,48.22
2023-10-04T06:49:45.886Z,48.05
2023-10-04T06:52:23.533Z,47.55
2023-10-04T06:54:51.925Z,47.44
2023-10-04T06:57:27.221Z,47.28
2023-10-04T06:59:59.060Z,46.65
2023-10-04T07:02:40.904Z,47.11
2023-10-04T07:05:18.087Z,47.01
2023-10-04T07:07:51.232Z,47.21
2023-10-04T07:10:24.590Z,46.42
2023-10-04T07:13:04.462Z,46.28
2023-10-04T07:15:44.306Z,46.89
2023-10-04T07:18:25.688Z,47.21
2023-10-04T07:21:03.497Z,46.91
2023-10-04T07:23:52.276Z,47.16
2023-10-04T07:26:20.852Z,47.07
2023-10-04T07:28:51.768Z,47.02
2023-10-04T07:31:33.734Z,47.24
2023-10-04T07:34:10.562Z,47.05
2023-10-04T07:36:52.980Z,47.04
2023-10-04T07:39:38.735Z,47.21
2023-10-04T07:42:17.824Z,47.07
2023-10-04T07:44:54.096Z,47.49
2023-10-04T07:47:31.634Z,47.67
2023-10-04T07:50:11.165Z,47.14
2023-10-04T07:52:49.567Z,47.62
2023-10-04T07:55:24.193Z,47.88
2023-10-04T07:58:07.359Z,47.37
2023-10-04T08:00:42.966Z,47.54
2023-10-04T08:03:18.583Z,46.59
2023-10-04T08:05:56.516Z,46.64
2023-10-04T08:08:26.989Z,45.89
2023-10-04T08:11:04.760Z,45.85
2023-10-04T08:13:37.498Z,45.32
2023-10-04T08:16:07.642Z,43.78
2023-10-04T08:21:30.987Z,42.23
2023-10-04T08:24:24.801Z,41.81
2023-10-04T08:27:01.086Z,41.31
2023-10-04T08:29:47.284Z,40.23
2023-10-04T08:35:44.144Z,38.51
2023-10-04T08:38:21.874Z,38.07
2023-10-04T08:40:50.493Z,37.21
2023-10-04T08:43:43.176Z,36.71
2023-10-04T08:46:30.434Z,36.13
2023-10-04T08:49:07.396Z,35.62
2023-10-04T08:52:08.858Z,35.75
2023-10-04T08:54:48.669Z,35.22
2023-10-04T08:57:43.888Z,34.89
2023-10-04T09:00:34.996Z,35.02
2023-10-04T09:03:12.800Z,34.58
2023-10-04T09:05:48.935Z,33.24
2023-10-04T09:08:22.052Z,33.60
2023-10-04T09:11:03.937Z,33.42
2023-10-04T09:13:47.651Z,33.17
2023-10-04T09:16:50.805Z,32.96
2023-10-04T09:19:32.476Z,32.58
2023-10-04T09:22:16.787Z,32.44
2023-10-04T09:25:08.042Z,32.78
2023-10-04T09:27:56.957Z,32.17
2023-10-04T09:30:33.770Z,32.83
2023-10-04T09:33:32.306Z,32.08
2023-10-04T09:36:04.163Z,32.52
2023-10-04T09:38:53.968Z,32.14
2023-10-04T09:41:29.938Z,32.25
2023-10-04T09:44:49.200Z,32.55
2023-10-04T09:47:50.911Z,32.74
2023-10-04T09:50:46.929Z,31.73
2023-10-04T09:53:32.294Z,31.73
2023-10-04T09:56:15.512Z,32.88
2023-10-04T09:59:01.271Z,32.79
2023-10-04T10:01:34.742Z,32.30
2023-10-04T10:04:09.244Z,32.63
2023-10-04T10:06:43.089Z,31.54
2023-10-04T10:09:24.656Z,31.34
2023-10-04T10:12:01.372Z,31.45
2023-10-04T10:14:42.809Z,31.09
2023-10-04T10:17:11.671Z,31.05
2023-10-04T10:19:41.147Z,31.53
2023-10-04T10:22:20.560Z,30.67
2023-10-04T10:25:16.820Z,30.52
2023-10-04T10:28:13.740Z,30.20
2023-10-04T10:31:00.521Z,30.88
2023-10-04T10:34:05.875Z,31.48
2023-10-04T10:36:48.913Z,31.36
2023-10-04T10:39:29.843Z,31.31
2023-10-04T10:41:57.404Z,31.41
2023-10-04T10:44:34.020Z,31.92
2023-10-04T10:50:44.360Z,31.64
2023-10-04T10:53:17.250Z,31.37
2023-10-04T10:55:52.067Z,31.78
2023-10-04T10:58:19.731Z,31.62
2023-10-04T11:01:02.217Z,32.07
2023-10-04T11:03:48.074Z,32.13
2023-10-04T11:06:22.807Z,33.01
2023-10-04T11:12:01.439Z,33.30
2023-10-04T11:14:34.475Z,32.43
2023-10-04T11:17:06.137Z,32.18
2023-10-04T11:19:33.887Z,32.36
2023-10-04T11:22:01.725Z,32.21
2023-10-04T11:24:28.805Z,34.08
2023-10-04T11:26:58.743Z,34.33
2023-10-04T11:29:27.930Z,33.18
2023-10-04T11:32:05.257Z,33.84
2023-10-04T11:34:39.078Z,33.90
2023-10-04T11:37:07.549Z,34.06
2023-10-04T11:39:38.021Z,33.90
2023-10-04T11:42:12.446Z,34.50
2023-10-04T11:44:42.806Z,32.97
2023-10-04T11:47:13.175Z,33.07
2023-10-04T11:49:55.063Z,33.38
2023-10-04T11:52:25.812Z,33.63
2023-10-04T11:54:55.060Z,33.58
2023-10-04T11:57:26.295Z,32.88
2023-10-04T11:59:54.137Z,33.27
2023-10-04T12:02:23.617Z,33.12
2023-10-04T12:04:50.917Z,32.94
2023-10-04T12:07:18.015Z,33.29
2023-10-04T12:09:48.432Z,32.72
2023-10-04T12:12:19.083Z,33.89
2023-10-04T12:14:46.672Z,33.65
2023-10-04T12:17:15.404Z,32.50
2023-10-04T12:19:42.610Z,33.26
2023-10-04T12:22:21.809Z,34.25
2023-10-04T12:24:55.845Z,34.29
2023-10-04T12:27:24.773Z,34.41
2023-10-04T12:29:54.541Z,34.40
2023-10-04T12:32:21.572Z,34.53
2023-10-04T12:34:52.187Z,35.04
2023-10-04T12:37:19.222Z,34.27
2023-10-04T12:39:46.495Z,33.83
2023-10-04T12:42:13.682Z,33.65
2023-10-04T12:44:54.922Z,35.13
2023-10-04T12:47:42.879Z,35.03
2023-10-04T12:50:17.452Z,35.95
2023-10-04T12:52:53.136Z,35.83
2023-10-04T12:55:37.734Z,34.85
2023-10-04T12:58:09.465Z,35.53
2023-10-04T13:00:46.336Z,35.10
2023-10-04T13:03:23.207Z,34.46
2023-10-04T13:06:01.276Z,35.42
2023-10-04T13:08:53.856Z,35.72
2023-10-04T13:11:46.080Z,36.67
2023-10-04T13:14:18.849Z,34.70
2023-10-04T13:16:49.554Z,35.45
2023-10-04T13:19:22.831Z,36.03
2023-10-04T13:22:02.726Z,35.71
2023-10-04T13:25:07.135Z,35.13
2023-10-04T13:27:41.649Z,36.17
2023-10-04T13:30:24.738Z,35.24
2023-10-04T13:33:08.483Z,38.70
2023-10-04T13:38:49.083Z,36.98
2023-10-04T13:41:28.904Z,36.47
2023-10-04T13:44:02.028Z,37.44
2023-10-04T13:46:42.350Z,40.07
2023-10-04T13:49:22.245Z,39.71
2023-10-04T13:52:01.505Z,37.92
2023-10-04T13:54:44.623Z,37.41
2023-10-04T13:57:19.153Z,37.62
2023-10-04T13:59:49.170Z,36.24
2023-10-04T14:02:26.614Z,37.80
2023-10-04T14:05:02.106Z,39.67
2023-10-04T14:07:38.921Z,39.83
2023-10-04T14:10:37.628Z,38.22
2023-10-04T14:13:15.244Z,38.43
2023-10-04T14:15:50.633Z,39.55
2023-10-04T14:18:30.356Z,40.52
2023-10-04T14:21:02.530Z,41.40
2023-10-04T14:23:48.584Z,42.13
2023-10-04T14:26:18.349Z,41.28
2023-10-04T14:28:51.831Z,41.42
2023-10-04T14:31:26.738Z,40.96
2023-10-04T14:34:08.421Z,41.81
2023-10-04T14:36:44.577Z,42.05
2023-10-04T14:39:15.184Z,42.89
2023-10-04T14:41:47.022Z,44.64
2023-10-04T14:44:26.319Z,42.76
2023-10-04T14:46:57.653Z,43.79
2023-10-04T14:49:35.999Z,43.73
2023-10-04T14:52:13.292Z,44.64
2023-10-04T14:54:47.658Z,45.01
2023-10-04T14:57:20.002Z,44.25
2023-10-04T15:02:58.057Z,43.72
2023-10-04T15:05:29.476Z,43.93
2023-10-04T15:08:10.624Z,45.29
2023-10-04T15:10:52.304Z,48.38
2023-10-04T15:13:23.989Z,46.89
2023-10-04T15:16:11.705Z,46.16
2023-10-04T15:18:40.188Z,45.94
2023-10-04T15:21:08.663Z,48.18
2023-10-04T15:23:50.105Z,46.57
2023-10-04T15:26:24.706Z,47.79
2023-10-04T15:28:53.052Z,46.39
2023-10-04T15:31:30.214Z,47.65
2023-10-04T15:33:58.661Z,48.36
2023-10-04T15:36:40.515Z,48.72
2023-10-04T15:39:24.826Z,50.44
2023-10-04T15:41:52.254Z,50.31
2023-10-04T15:44:20.265Z,50.00
2023-10-04T15:46:51.727Z,48.35
2023-10-04T15:49:27.400Z,50.54
2023-10-04T15:51:54.734Z,52.15
2023-10-04T15:54:27.538Z,50.95
2023-10-04T15:57:00.374Z,51.56
2023-10-04T15:59:30.608Z,51.00
2023-10-04T16:02:03.633Z,51.35
2023-10-04T16:04:40.317Z,52.55
2023-10-04T16:07:16.377Z,51.45
2023-10-04T16:09:55.254Z,52.83
2023-10-04T16:12:39.923Z,51.60
2023-10-04T16:15:15.001Z,53.36
2023-10-04T16:17:50.859Z,52.58
2023-10-04T16:20:25.979Z,52.69
2023-10-04T16:23:23.530Z,54.00
2023-10-04T16:28:50.769Z,51.99
2023-10-04T16:31:35.874Z,53.29
2023-10-04T16:34:31.320Z,54.19
2023-10-04T16:37:19.448Z,53.06
2023-10-04T16:39:58.751Z,53.74
2023-10-04T16:45:36.897Z,52.53
2023-10-04T16:48:38.737Z,52.66
2023-10-04T16:51:36.887Z,53.36
2023-10-04T16:54:20.687Z,54.45
2023-10-04T16:56:56.787Z,54.16
2023-10-04T16:59:28.991Z,55.73
2023-10-04T17:02:04.167Z,56.10
2023-10-04T17:04:33.020Z,55.24
2023-10-04T17:07:09.485Z,54.82
2023-10-04T17:09:48.692Z,55.93
2023-10-04T17:12:16.975Z,55.49
2023-10-04T17:14:53.327Z,55.55
2023-10-04T17:20:27.764Z,55.07
2023-10-04T17:23:18.266Z,57.26
2023-10-04T17:25:51.718Z,56.84
2023-10-04T17:28:26.632Z,55.76
2023-10-04T17:30:54.331Z,55.49
2023-10-04T17:33:28.060Z,54.04
2023-10-04T17:35:55.930Z,54.41
2023-10-04T17:38:24.080Z,53.50
2023-10-04T17:40:54.382Z,54.58
2023-10-04T17:43:32.976Z,53.81
2023-10-04T17:46:08.953Z,55.03
2023-10-04T17:48:40.888Z,55.09
2023-10-04T17:51:40.339Z,55.48
2023-10-04T17:54:20.493Z,54.22
2023-10-04T17:56:59.918Z,54.11
2023-10-04T17:59:48.810Z,54.37
2023-10-04T18:02:24.931Z,54.23
2023-10-04T18:04:55.719Z,54.58
2023-10-04T18:07:28.941Z,53.13
2023-10-04T18:10:00.138Z,53.54
2023-10-04T18:12:39.855Z,54.01
2023-10-04T18:15:19.920Z,55.80
2023-10-04T18:17:55.966Z,55.15
2023-10-04T18:20:40.283Z,54.92
2023-10-04T18:29:10.263Z,55.20
2023-10-04T18:31:50.535Z,54.64
2023-10-04T18:34:28.379Z,54.91
2023-10-04T18:37:13.420Z,56.04
2023-10-04T18:40:01.951Z,55.07
2023-10-04T18:42:45.900Z,54.53
2023-10-04T18:45:42.585Z,53.81
2023-10-04T18:48:17.501Z,55.06
2023-10-04T18:50:59.794Z,55.54
2023-10-04T18:53:51.720Z,55.15
2023-10-04T18:56:41.093Z,55.59
2023-10-04T18:59:15.196Z,55.99
2023-10-04T19:02:07.115Z,54.97
2023-10-04T19:04:55.171Z,56.92
2023-10-04T19:07:38.552Z,56.35
2023-10-04T19:10:25.559Z,57.04
2023-10-04T19:13:20.978Z,57.27
2023-10-04T19:15:57.558Z,56.63
2023-10-04T19:18:34.977Z,55.15
2023-10-04T19:21:09.191Z,54.22
2023-10-04T19:23:43.257Z,54.36
2023-10-04T19:29:03.231Z,53.00
2023-10-04T19:31:45.176Z,53.07
2023-10-04T19:34:15.934Z,53.00
2023-10-04T19:36:52.273Z,53.26
2023-10-04T19:39:33.021Z,52.51
2023-10-04T19:42:13.184Z,52.16
2023-10-04T19:44:46.462Z,52.32
2023-10-04T19:47:24.770Z,52.99
2023-10-04T19:50:05.524Z,52.67
2023-10-04T19:52:42.946Z,53.16
2023-10-04T19:55:14.824Z,52.94
2023-10-04T19:57:51.109Z,53.00
2023-10-04T20:00:34.877Z,53.22
2023-10-04T20:03:36.141Z,54.39
2023-10-04T20:06:15.093Z,53.42
2023-10-04T20:12:35.170Z,52.39
2023-10-04T20:15:18.664Z,52.34
2023-10-04T20:17:55.368Z,53.50
2023-10-04T20:20:28.844Z,53.34
2023-10-04T20:23:07.987Z,52.91
2023-10-04T20:25:53.858Z,52.71
2023-10-04T20:28:38.398Z,52.49
2023-10-04T20:31:48.047Z,52.01
2023-10-04T20:34:23.351Z,51.30
2023-10-04T20:36:53.440Z,51.17
2023-10-04T20:39:29.908Z,51.46
2023-10-04T20:42:08.059Z,51.66
2023-10-04T20:44:44.613Z,51.88
2023-10-04T20:47:34.015Z,51.87
2023-10-04T20:50:22.509Z,51.90
2023-10-04T20:52:54.620Z,51.95
2023-10-04T20:55:31.505Z,51.64
2023-10-04T20:58:05.618Z,51.55
2023-10-04T21:00:36.943Z,50.99
2023-10-04T21:03:10.204Z,51.25
2023-10-04T21:05:52.351Z,51.27
2023-10-04T21:08:31.280Z,51.21
2023-10-04T21:11:38.493Z,51.16
2023-10-04T21:14:16.705Z,51.17
2023-10-04T21:16:44.959Z,51.12
2023-10-04T21:19:46.548Z,51.20
2023-10-04T21:22:17.722Z,50.88
2023-10-04T21:24:49.856Z,50.72
2023-10-04T21:27:31.619Z,50.75
2023-10-04T21:30:18.841Z,50.90
2023-10-04T21:33:28.918Z,50.97
2023-10-04T21:36:21.747Z,50.94
2023-10-04T21:39:10.928Z,51.05
2023-10-04T21:41:57.191Z,51.21
2023-10-04T21:44:46.716Z,50.94
2023-10-04T21:47:43.431Z,50.86
2023-10-04T21:53:11.716Z,50.48
2023-10-04T21:55:42.755Z,50.60
2023-10-04T21:58:15.747Z,50.90
2023-10-04T22:01:00.361Z,50.67
2023-10-04T22:03:39.084Z,50.58
2023-10-04T22:06:08.655Z,50.97
2023-10-04T22:08:38.396Z,50.79
2023-10-04T22:11:09.013Z,50.92
2023-10-04T22:13:38.214Z,50.93
2023-10-04T22:16:12.128Z,51.05
2023-10-04T22:18:39.409Z,51.05
2023-10-04T22:21:12.549Z,51.45
2023-10-04T22:23:45.823Z,51.19
2023-10-04T22:26:21.731Z,51.32
2023-10-04T22:28:55.398Z,51.08
2023-10-04T22:35:40.513Z,51.17
2023-10-04T22:38:17.866Z,51.33
2023-10-04T22:41:28.674Z,51.22
2023-10-04T22:44:01.280Z,51.12
2023-10-04T22:46:40.824Z,51.41
2023-10-04T22:49:10.378Z,51.33
2023-10-04T22:51:45.216Z,51.36
2023-10-04T22:54:15.352Z,51.49
2023-10-04T22:56:42.667Z,51.37
2023-10-04T22:59:29.217Z,51.43
2023-10-04T23:02:01.017Z,51.38
2023-10-04T23:04:33.948Z,51.34
2023-10-04T23:07:03.889Z,51.42
2023-10-04T23:09:32.519Z,51.73
2023-10-04T23:12:02.964Z,51.50
2023-10-04T23:14:35.457Z,51.81
2023-10-04T23:17:04.069Z,51.49
2023-10-04T23:27:18.745Z,51.78
2023-10-04T23:29:52.978Z,51.62
2023-10-04T23:32:27.542Z,51.89
2023-10-04T23:35:11.500Z,52.02
2023-10-04T23:37:48.672Z,51.98
2023-10-04T23:40:19.961Z,52.26
2023-10-04T23:42:48.869Z,52.15
2023-10-04T23:45:26.206Z,52.08
2023-10-04T23:48:07.386Z,52.31
2023-10-04T23:50:34.718Z,51.91
2023-10-04T23:53:05.704Z,52.09
2023-10-04T23:55:37.100Z,51.87
2023-10-04T23:58:08.503Z,52.02
